.
WxDataArchive / Data Records for 2014-10-05
2014-10-04 October 2014 2014-10-06

Data Records for Sunday, 05 October 2014

Time	Temp	Chill	HIndex	Humid	Dewpt	 Wind 	HiWind	WindDir	Rain 	Barom
-----	----	-----	------	-----	-----	------	------	-------	-----	-----
00:00	43.8	43.8	43.8	72	35.4	1	4	270	0.00	29.775 
00:05	43.8	43.8	43.8	72	35.4	0	4	270	0.00	29.775 
00:10	43.9	43.9	43.9	71	35.1	0	3	270	0.00	29.775 
00:15	43.9	43.9	43.9	70	34.8	1	4	270	0.00	29.775 
00:20	44.1	44.1	44.1	70	35.0	0	2	270	0.00	29.775 
00:25	44.1	44.1	44.1	69	34.6	0	2	270	0.00	29.775 
00:30	44.1	44.1	44.1	70	35.0	0	3	292	0.00	29.769 
00:35	44.2	44.2	44.2	69	34.7	1	3	292	0.00	29.769 
00:40	44.2	44.2	44.2	69	34.7	1	5	292	0.00	29.769 
00:45	44.3	44.3	44.3	68	34.4	1	6	270	0.00	29.767 
00:50	44.3	44.3	44.3	68	34.4	1	5	270	0.00	29.767 
00:55	44.5	44.5	44.5	68	34.6	0	3	292	0.00	29.767 
01:00	44.5	44.5	44.5	68	34.6	0	3	292	0.00	29.764 
01:05	44.3	44.3	44.3	68	34.4	0	3	292	0.00	29.764 
01:10	44.3	44.3	44.3	68	34.4	0	3	270	0.00	29.764 
01:15	44.2	44.2	44.2	69	34.7	0	1	270	0.00	29.764 
01:20	44.1	44.1	44.1	69	34.6	0	3	338	0.00	29.764 
01:25	43.9	43.9	43.9	69	34.4	0	4	315	0.00	29.764 
01:30	43.9	43.9	43.9	69	34.4	0	3	315	0.00	29.757 
01:35	43.9	43.9	43.9	69	34.4	0	2	315	0.00	29.757 
01:40	43.8	43.8	43.8	69	34.3	0	2	315	0.00	29.757 
01:45	43.6	43.6	43.6	70	34.5	0	2	315	0.00	29.753 
01:50	43.5	43.5	43.5	70	34.4	0	4	292	0.00	29.753 
01:55	43.5	43.5	43.5	70	34.4	0	1	292	0.00	29.753 
02:00	43.5	43.5	43.5	70	34.4	0	3	292	0.00	29.757 
02:05	43.5	43.5	43.5	70	34.4	0	3	292	0.00	29.757 
02:10	43.5	43.5	43.5	71	34.7	0	1	292	0.00	29.757 
02:15	43.3	43.3	43.3	71	34.5	0	1	292	0.00	29.760 
02:20	43.2	43.2	43.2	71	34.4	0	2	292	0.00	29.760 
02:25	43.2	43.2	43.2	71	34.4	0	4	292	0.00	29.760 
02:30	43.2	43.2	43.2	71	34.4	0	0	---	0.00	29.761 
02:35	43.1	43.1	43.1	71	34.3	0	1	292	0.00	29.761 
02:40	43.1	43.1	43.1	71	34.3	0	2	292	0.00	29.761 
02:45	43.1	43.1	43.1	71	34.3	0	1	292	0.00	29.757 
02:50	42.9	42.9	42.9	71	34.2	0	3	292	0.00	29.757 
02:55	42.9	42.9	42.9	70	33.8	0	2	292	0.00	29.757 
03:00	42.9	42.9	42.9	71	34.2	0	2	292	0.00	29.757 
03:05	42.9	42.9	42.9	70	33.8	0	1	292	0.00	29.757 
03:10	42.9	42.9	42.9	70	33.8	0	1	292	0.00	29.757 
03:15	42.9	42.9	42.9	70	33.8	0	3	292	0.00	29.754 
03:20	43.1	43.1	43.1	70	34.0	0	2	292	0.00	29.754 
03:25	43.2	43.2	43.2	70	34.1	0	2	292	0.00	29.754 
03:30	43.3	43.3	43.3	70	34.2	0	1	292	0.00	29.753 
03:35	43.3	43.3	43.3	70	34.2	0	2	292	0.00	29.753 
03:40	43.3	43.3	43.3	70	34.2	0	2	292	0.00	29.753 
03:45	43.2	43.2	43.2	71	34.4	0	2	292	0.00	29.751 
03:50	43.1	43.1	43.1	71	34.3	0	2	292	0.00	29.751 
03:55	42.9	42.9	42.9	72	34.5	0	2	292	0.00	29.751 
04:00	42.8	42.8	42.8	73	34.8	0	2	292	0.00	29.749 
04:05	42.6	42.6	42.6	73	34.6	0	1	292	0.00	29.749 
04:10	42.5	42.5	42.5	73	34.5	0	0	---	0.00	29.749 
04:15	42.3	42.3	42.3	74	34.6	0	1	292	0.00	29.751 
04:20	42.2	42.2	42.2	75	34.9	0	0	---	0.00	29.751 
04:25	42.1	42.1	42.1	75	34.8	0	1	292	0.00	29.751 
04:30	41.9	41.9	41.9	76	34.9	0	0	---	0.00	29.753 
04:35	41.9	41.9	41.9	77	35.2	0	2	292	0.00	29.753 
04:40	41.9	41.9	41.9	77	35.2	0	1	292	0.00	29.753 
04:45	41.9	41.9	41.9	77	35.2	0	1	292	0.00	29.754 
04:50	41.8	41.8	41.8	77	35.1	0	0	---	0.00	29.754 
04:55	41.9	41.9	41.9	77	35.2	0	1	292	0.00	29.754 
05:00	41.9	41.9	41.9	77	35.2	0	1	292	0.00	29.757 
05:05	42.1	42.1	42.1	77	35.4	0	1	292	0.00	29.757 
05:10	42.1	42.1	42.1	78	35.7	0	0	---	0.00	29.757 
05:15	42.1	42.1	42.1	78	35.7	0	1	292	0.00	29.759 
05:20	42.2	42.2	42.2	78	35.8	0	1	292	0.00	29.759 
05:25	42.3	42.3	42.3	78	35.9	0	1	292	0.00	29.759 
05:30	42.5	42.5	42.5	77	35.8	0	1	292	0.00	29.762 
05:35	42.6	42.6	42.6	77	35.9	0	2	292	0.00	29.762 
05:40	42.8	42.8	42.8	77	36.1	0	1	292	0.00	29.762 
05:45	42.8	42.8	42.8	76	35.8	0	4	292	0.00	29.766 
05:50	42.9	42.9	42.9	76	35.9	0	1	292	0.00	29.766 
05:55	42.9	42.9	42.9	76	35.9	0	1	292	0.00	29.766 
06:00	43.1	43.1	43.1	76	36.1	0	1	292	0.00	29.766 
06:05	43.1	43.1	43.1	76	36.1	0	1	292	0.00	29.766 
06:10	43.1	43.1	43.1	75	35.7	0	1	292	0.00	29.766 
06:15	43.1	43.1	43.1	75	35.7	0	1	292	0.00	29.767 
06:20	43.1	43.1	43.1	75	35.7	0	1	292	0.00	29.767 
06:25	43.1	43.1	43.1	75	35.7	0	1	292	0.00	29.767 
06:30	43.1	43.1	43.1	75	35.7	0	1	292	0.00	29.767 
06:35	43.1	43.1	43.1	75	35.7	0	1	292	0.00	29.767 
06:40	42.9	42.9	42.9	75	35.5	0	1	292	0.00	29.767 
06:45	42.8	42.8	42.8	75	35.4	0	1	292	0.00	29.768 
06:50	42.8	42.8	42.8	76	35.8	0	1	292	0.00	29.768 
06:55	42.6	42.6	42.6	76	35.6	0	0	---	0.00	29.768 
07:00	42.6	42.6	42.6	77	35.9	0	0	---	0.00	29.769 
07:05	42.6	42.6	42.6	77	35.9	0	0	---	0.00	29.769 
07:10	42.5	42.5	42.5	77	35.8	0	1	292	0.00	29.769 
07:15	42.6	42.6	42.6	78	36.2	0	1	292	0.00	29.775 
07:20	42.6	42.6	42.6	78	36.2	0	1	292	0.00	29.775 
07:25	42.6	42.6	42.6	78	36.2	0	0	---	0.00	29.775 
07:30	42.8	42.8	42.8	78	36.4	0	1	292	0.00	29.777 
07:35	42.8	42.8	42.8	78	36.4	0	1	292	0.00	29.777 
07:40	42.9	42.9	42.9	78	36.5	0	1	292	0.00	29.777 
07:45	43.1	43.1	43.1	78	36.7	0	0	---	0.00	29.776 
07:50	43.1	43.1	43.1	78	36.7	0	1	292	0.00	29.776 
07:55	43.1	43.1	43.1	78	36.7	0	1	292	0.00	29.776 
08:00	43.2	43.2	43.2	78	36.8	0	1	292	0.00	29.776 
08:05	43.2	43.2	43.2	77	36.5	0	1	292	0.00	29.776 
08:10	43.2	43.2	43.2	78	36.8	0	1	292	0.00	29.776 
08:15	43.3	43.3	43.3	77	36.6	0	1	292	0.00	29.781 
08:20	43.3	43.3	43.3	77	36.6	0	1	292	0.00	29.781 
08:25	43.3	43.3	43.3	77	36.6	0	1	292	0.00	29.781 
08:30	43.5	43.5	43.5	77	36.8	0	1	292	0.00	29.781 
08:35	43.5	43.5	43.5	77	36.8	0	1	292	0.00	29.781 
08:40	43.6	43.6	43.6	77	36.9	0	1	292	0.00	29.781 
08:45	43.6	43.6	43.6	76	36.5	0	1	292	0.00	29.781 
08:50	43.8	43.8	43.8	76	36.7	0	1	292	0.00	29.781 
08:55	43.8	43.8	43.8	75	36.4	0	1	292	0.00	29.781 
09:00	43.9	43.9	43.9	75	36.5	0	2	292	0.00	29.782 
09:05	44.1	44.1	44.1	75	36.7	0	2	292	0.00	29.782 
09:10	44.2	44.2	44.2	75	36.8	0	1	292	0.00	29.782 
09:15	44.3	44.3	44.3	74	36.5	0	1	292	0.00	29.786 
09:20	44.5	44.5	44.5	73	36.4	0	2	292	0.00	29.786 
09:25	44.6	44.6	44.6	73	36.5	0	3	292	0.00	29.786 
09:30	44.8	44.8	44.8	73	36.7	0	1	292	0.00	29.787 
09:35	44.9	44.9	44.9	73	36.8	0	1	292	0.00	29.787 
09:40	45.1	45.1	45.1	73	37.0	0	1	292	0.00	29.787 
09:45	45.4	45.4	45.4	72	36.9	0	4	292	0.00	29.788 
09:50	45.7	45.7	45.7	71	36.8	0	2	248	0.00	29.788 
09:55	46.1	46.1	46.1	69	36.5	0	2	248	0.00	29.788 
10:00	46.7	46.7	46.7	68	36.7	0	2	248	0.00	29.786 
10:05	47.0	47.0	47.0	67	36.6	1	3	248	0.00	29.786 
10:10	47.1	47.1	47.1	66	36.3	0	2	248	0.00	29.786 
10:15	47.3	47.3	47.3	65	36.1	1	5	292	0.00	29.788 
10:20	47.4	47.4	47.4	65	36.2	0	4	292	0.00	29.788 
10:25	47.6	47.6	47.6	65	36.4	0	2	292	0.00	29.788 
10:30	47.9	47.9	47.9	64	36.3	0	2	292	0.00	29.788 
10:35	48.0	48.0	48.0	61	35.2	1	4	292	0.00	29.788 
10:40	48.3	48.3	48.3	61	35.5	1	3	292	0.00	29.788 
10:45	48.6	48.6	48.6	60	35.3	1	3	315	0.00	29.784 
10:50	48.8	48.8	48.8	58	34.7	1	3	315	0.00	29.784 
10:55	48.9	48.9	48.9	58	34.8	1	3	292	0.00	29.784 
11:00	49.2	49.2	49.2	58	35.1	1	3	292	0.00	29.779 
11:05	49.6	49.6	49.6	56	34.6	1	3	292	0.00	29.779 
11:10	49.9	49.9	49.9	56	34.8	1	4	292	0.00	29.779 
11:15	49.8	49.8	49.8	52	32.9	1	4	248	0.00	29.778 
11:20	49.8	49.8	49.8	53	33.4	1	6	270	0.00	29.778 
11:25	49.5	49.5	49.5	53	33.1	1	5	292	0.00	29.778 
11:30	49.8	49.8	49.8	52	32.9	1	5	0	0.00	29.776 
11:35	50.1	50.1	50.1	52	33.2	1	4	270	0.00	29.776 
11:40	50.5	50.5	50.5	50	32.6	1	4	270	0.00	29.776 
11:45	51.1	51.1	51.1	51	33.6	1	4	270	0.00	29.770 
11:50	51.6	51.6	51.6	49	33.1	1	3	270	0.00	29.770 
11:55	51.7	51.7	51.7	49	33.2	1	5	270	0.00	29.770 
12:00	51.3	51.3	51.3	48	32.3	1	4	270	0.00	29.767 
12:05	50.7	50.7	50.7	48	31.7	1	4	270	0.00	29.767 
12:10	50.5	50.5	50.5	50	32.6	1	3	270	0.00	29.767 
12:15	50.5	50.5	50.5	49	32.1	1	4	270	0.00	29.761 
12:20	50.7	50.7	50.7	50	32.7	0	2	270	0.00	29.761 
12:25	51.1	51.1	51.1	50	33.1	2	5	270	0.00	29.761 
12:30	51.4	51.4	51.4	47	31.9	1	5	248	0.00	29.756 
12:35	51.4	51.4	51.4	47	31.9	1	5	248	0.00	29.756 
12:40	51.9	51.9	51.9	48	32.8	1	4	248	0.00	29.756 
12:45	52.5	52.5	52.5	46	32.3	1	6	270	0.00	29.745 
12:50	52.9	52.9	52.9	46	32.7	1	4	315	0.00	29.745 
12:55	53.3	53.3	53.3	45	32.5	1	5	270	0.00	29.745 
13:00	53.6	53.6	53.6	45	32.8	1	4	270	0.00	29.742 
13:05	53.5	53.5	53.5	45	32.7	1	5	270	0.00	29.742 
13:10	53.6	53.6	53.6	43	31.7	2	7	270	0.00	29.742 
13:15	53.8	53.8	53.8	45	33.0	1	7	270	0.00	29.737 
13:20	54.4	54.4	54.4	43	32.4	1	4	270	0.00	29.737 
13:25	55.0	55.0	55.0	44	33.5	2	7	248	0.00	29.737 
13:30	54.8	54.8	54.8	41	31.6	2	6	270	0.00	29.727 
13:35	54.7	54.7	54.7	41	31.5	2	6	248	0.00	29.727 
13:40	54.7	54.7	54.7	42	32.1	2	5	270	0.00	29.727 
13:45	54.8	54.8	54.8	43	32.7	2	5	292	0.00	29.722 
13:50	55.0	55.0	55.0	42	32.3	1	4	292	0.00	29.722 
13:55	55.3	55.3	55.3	40	31.4	1	4	248	0.00	29.722 
14:00	55.4	55.4	55.4	39	30.9	2	7	270	0.00	29.710 
14:05	55.0	55.0	55.0	40	31.1	1	5	292	0.00	29.710 
14:10	55.4	55.4	55.4	41	32.1	1	5	270	0.00	29.710 
14:15	55.9	55.9	55.9	39	31.3	2	5	248	0.00	29.703 
14:20	55.9	55.9	55.9	38	30.7	2	6	292	0.00	29.703 
14:25	55.9	55.9	55.9	37	30.0	1	4	270	0.00	29.703 
14:30	56.0	56.0	56.0	39	31.4	1	4	270	0.00	29.698 
14:35	56.6	56.6	56.6	39	31.9	1	5	292	0.00	29.698 
14:40	57.2	57.2	57.2	38	31.8	1	6	270	0.00	29.698 
14:45	57.2	57.2	57.2	37	31.2	3	6	270	0.00	29.689 
14:50	57.5	57.5	57.5	36	30.8	1	5	248	0.00	29.689 
14:55	56.9	56.9	56.9	36	30.2	1	6	270	0.00	29.689 
15:00	56.5	56.5	56.5	38	31.2	1	4	292	0.00	29.685 
15:05	56.7	56.7	56.7	37	30.7	2	7	292	0.00	29.685 
15:10	56.9	56.9	56.9	37	30.9	2	7	248	0.00	29.685 
15:15	57.0	57.0	57.0	38	31.6	1	5	270	0.00	29.687 
15:20	56.6	56.6	56.6	38	31.3	1	3	270	0.00	29.687 
15:25	56.5	56.5	56.5	39	31.8	1	4	248	0.00	29.687 
15:30	56.5	56.5	56.5	37	30.5	2	7	270	0.00	29.691 
15:35	56.2	56.2	56.2	39	31.6	1	6	270	0.00	29.691 
15:40	55.6	55.6	55.6	39	31.0	2	5	270	0.00	29.691 
15:45	55.1	55.1	55.1	40	31.2	2	6	270	0.00	29.693 
15:50	55.0	55.0	55.0	42	32.3	1	6	292	0.00	29.693 
15:55	55.0	55.0	55.0	40	31.1	1	9	315	0.00	29.693 
16:00	54.5	54.5	54.5	42	31.9	2	8	248	0.00	29.701 
16:05	54.4	54.4	54.4	41	31.2	2	6	248	0.00	29.701 
16:10	54.4	54.4	54.4	43	32.4	2	7	270	0.00	29.701 
16:15	54.2	54.2	54.2	43	32.2	1	7	248	0.00	29.708 
16:20	54.1	54.1	54.1	44	32.7	1	4	248	0.00	29.708 
16:25	53.8	53.8	53.8	46	33.5	2	7	270	0.00	29.708 
16:30	53.3	53.3	53.3	46	33.1	1	4	270	0.00	29.707 
16:35	53.1	53.1	53.1	46	32.9	1	3	248	0.00	29.707 
16:40	53.1	53.1	53.1	47	33.4	1	3	248	0.00	29.707 
16:45	53.2	53.2	53.2	46	33.0	1	6	315	0.00	29.700 
16:50	53.3	53.3	53.3	48	34.1	1	4	270	0.00	29.700 
16:55	53.5	53.5	53.5	47	33.8	0	1	270	0.00	29.700 
17:00	53.6	53.6	53.6	46	33.3	0	1	270	0.00	29.698 
17:05	53.6	53.6	53.6	46	33.3	0	3	292	0.00	29.698 
17:10	53.6	53.6	53.6	44	32.2	1	5	292	0.00	29.698 
17:15	53.6	53.6	53.6	44	32.2	0	2	270	0.00	29.697 
17:20	53.6	53.6	53.6	44	32.2	1	3	270	0.00	29.697 
17:25	53.5	53.5	53.5	43	31.6	1	4	292	0.00	29.697 
17:30	53.5	53.5	53.5	43	31.6	1	4	270	0.00	29.694 
17:35	53.5	53.5	53.5	44	32.1	0	2	270	0.00	29.694 
17:40	53.3	53.3	53.3	45	32.5	0	1	270	0.00	29.694 
17:45	53.3	53.3	53.3	44	31.9	0	1	270	0.00	29.689 
17:50	53.3	53.3	53.3	44	31.9	0	1	270	0.00	29.689 
17:55	53.3	53.3	53.3	44	31.9	0	1	270	0.00	29.689 
18:00	53.3	53.3	53.3	44	31.9	0	2	270	0.00	29.692 
18:05	53.2	53.2	53.2	46	33.0	0	1	270	0.00	29.692 
18:10	53.2	53.2	53.2	46	33.0	0	1	270	0.00	29.692 
18:15	53.1	53.1	53.1	46	32.9	0	1	270	0.00	29.688 
18:20	53.1	53.1	53.1	47	33.4	0	1	270	0.00	29.688 
18:25	52.9	52.9	52.9	48	33.7	0	1	270	0.00	29.688 
18:30	52.9	52.9	52.9	47	33.2	0	0	---	0.00	29.692 
18:35	52.9	52.9	52.9	48	33.7	0	1	270	0.00	29.692 
18:40	52.8	52.8	52.8	48	33.7	0	0	---	0.00	29.692 
18:45	52.8	52.8	52.8	49	34.2	0	1	270	0.00	29.694 
18:50	52.6	52.6	52.6	51	35.0	0	0	---	0.00	29.694 
18:55	52.5	52.5	52.5	52	35.4	0	0	---	0.00	29.694 
19:00	52.3	52.3	52.3	54	36.2	0	0	---	0.00	29.694 
19:05	52.0	52.0	52.0	55	36.3	0	0	---	0.00	29.694 
19:10	51.9	51.9	51.9	56	36.7	0	1	270	0.00	29.694 
19:15	51.7	51.7	51.7	57	37.0	0	0	---	0.00	29.690 
19:20	51.6	51.6	51.6	58	37.3	0	0	---	0.00	29.690 
19:25	51.3	51.3	51.3	58	37.0	0	0	---	0.00	29.690 
19:30	51.3	51.3	51.3	59	37.5	0	0	---	0.00	29.694 
19:35	51.1	51.1	51.1	59	37.3	0	0	---	0.00	29.694 
19:40	51.0	51.0	51.0	59	37.2	0	0	---	0.00	29.694 
19:45	50.8	50.8	50.8	61	37.8	0	0	---	0.00	29.699 
19:50	50.8	50.8	50.8	61	37.8	0	0	---	0.00	29.699 
19:55	50.7	50.7	50.7	61	37.7	0	0	---	0.00	29.699 
20:00	50.7	50.7	50.7	62	38.2	0	0	---	0.00	29.707 
20:05	50.7	50.7	50.7	62	38.2	0	0	---	0.00	29.707 
20:10	50.8	50.8	50.8	63	38.7	0	1	270	0.00	29.707 
20:15	51.0	51.0	51.0	63	38.9	0	0	---	0.00	29.712 
20:20	51.1	51.1	51.1	63	38.9	0	1	270	0.00	29.712 
20:25	51.4	51.4	51.4	63	39.2	0	1	270	0.00	29.712 
20:30	51.6	51.6	51.6	62	39.0	0	1	270	0.00	29.711 
20:35	51.9	51.9	51.9	62	39.3	0	1	270	0.00	29.711 
20:40	52.0	52.0	52.0	62	39.4	0	1	270	0.00	29.711 
20:45	52.2	52.2	52.2	62	39.6	0	2	270	0.00	29.714 
20:50	52.2	52.2	52.2	62	39.6	0	3	270	0.00	29.714 
20:55	52.3	52.3	52.3	62	39.7	0	2	270	0.00	29.714 
21:00	52.3	52.3	52.3	62	39.7	0	1	270	0.00	29.717 
21:05	52.3	52.3	52.3	62	39.7	0	1	270	0.00	29.717 
21:10	52.3	52.3	52.3	62	39.7	0	2	270	0.00	29.717 
21:15	52.3	52.3	52.3	62	39.7	0	1	270	0.00	29.714 
21:20	52.3	52.3	52.3	62	39.7	0	1	270	0.00	29.714 
21:25	52.3	52.3	52.3	62	39.7	0	2	270	0.00	29.714 
21:30	52.3	52.3	52.3	62	39.7	0	1	270	0.00	29.710 
21:35	52.3	52.3	52.3	62	39.7	0	1	270	0.00	29.710 
21:40	52.3	52.3	52.3	62	39.7	0	1	270	0.00	29.710 
21:45	52.3	52.3	52.3	63	40.1	0	1	270	0.00	29.710 
21:50	52.3	52.3	52.3	63	40.1	0	2	270	0.00	29.710 
21:55	52.3	52.3	52.3	63	40.1	0	1	270	0.00	29.710 
22:00	52.2	52.2	52.2	63	40.0	0	1	270	0.00	29.708 
22:05	52.2	52.2	52.2	64	40.4	0	3	292	0.00	29.708 
22:10	52.2	52.2	52.2	64	40.4	0	2	315	0.00	29.708 
22:15	52.2	52.2	52.2	65	40.8	0	1	315	0.00	29.707 
22:20	52.0	52.0	52.0	65	40.6	0	1	315	0.00	29.707 
22:25	51.9	51.9	51.9	66	40.9	0	1	315	0.00	29.707 
22:30	51.7	51.7	51.7	66	40.7	0	1	315	0.00	29.707 
22:35	51.7	51.7	51.7	66	40.7	0	1	0	0.00	29.707 
22:40	51.6	51.6	51.6	67	41.0	0	2	270	0.00	29.707 
22:45	51.6	51.6	51.6	67	41.0	0	1	270	0.00	29.708 
22:50	51.6	51.6	51.6	69	41.8	0	1	270	0.00	29.708 
22:55	51.4	51.4	51.4	69	41.6	0	1	270	0.00	29.708 
23:00	51.3	51.3	51.3	70	41.9	0	1	270	0.00	29.707 
23:05	51.1	51.1	51.1	72	42.4	0	1	270	0.00	29.707 
23:10	51.1	51.1	51.1	72	42.4	0	1	270	0.00	29.707 
23:15	51.0	51.0	51.0	73	42.7	0	1	270	0.00	29.705 
23:20	51.0	51.0	51.0	73	42.7	0	1	270	0.00	29.705 
23:25	51.0	51.0	51.0	73	42.7	0	0	---	0.00	29.705 
23:30	50.8	50.8	50.8	73	42.5	0	0	---	0.00	29.704 
23:35	50.8	50.8	50.8	74	42.8	0	0	---	0.00	29.704 
23:40	50.7	50.7	50.7	74	42.7	0	0	---	0.00	29.704 
23:45	50.7	50.7	50.7	74	42.7	0	0	---	0.00	29.702 
23:50	50.7	50.7	50.7	75	43.1	0	1	270	0.00	29.702 
23:55	50.5	50.5	50.5	76	43.2	0	0	---	0.00	29.702 

CoCoRaHS
IN-AL-39
A2 Web Hosting
Creative Commons License
GoDaddy
search engine by freefind advanced

loaded 2018-11-22 05:58:49 • last modified 2010-11-18 10:43:29
Privacy PolicyDisclaimer
• wx.awcolley.com is powered by PmWiki v.2002016 •
• all content (unless otherwise noted) © 2018 A W Colley